Laredo International, TX

4:27 AM CDT on September 02, 2014 (GMT -0500)
Zapata | Change Station
CLOSE
Current Station
Airport
Location: Zapata,
Elevation: 423 ft
Nearby Weather Stations

Elev 423 ft 26.97 °N, 99.25 °W | Updated 12 minutes ago

Scattered Clouds
Scattered Clouds
80 °F
Feels Like 84 °F
N
5
Wind Variable Wind from SE

Today
High -- | Low -- °F
--% Chance of Precip.
Yesterday
High -- | Low -- °F
Precip. -- in
7:17 AM 7:57 PM
Waxing Crescent, 49% visible
Pressure 29.86 in
Visibility 10.0 miles
Clouds Scattered Clouds 1600 ft
Scattered Clouds 2100 ft
Heat Index 84 °F
Dew Point 74 °F
Humidity 81%
Rainfall 0.00 in
Snow Depth Not available.
UV 0 out of 12
Pollen 10.10 out of 12
PM2.5 Good
Flu Activity Not available.
METAR KAPY 020915Z AUTO 13004KT 10SM SCT016 SCT021 26/23 A2986 RMK AO2 T02670232

More Conditions Fewer Conditions

Pressure 29.86 in
Visibility 10.0 miles
Clouds Scattered Clouds 1600 ft
Scattered Clouds 2100 ft
Heat Index 84 °F
Dew Point 74 °F
Humidity 81%
Rainfall 0.00 in
Snow Depth Not available.
UV 0 out of 12
Pollen 10.10 out of 12
PM2.5 Good
Flu Activity Not available.
METAR KAPY 020915Z AUTO 13004KT 10SM SCT016 SCT021 26/23 A2986 RMK AO2 T02670232

More Conditions Fewer Conditions

10-Day Weather Forecast

Almanac

Astronomy

Sep. 02, 2014 Rise Set
Actual Time 7:17 AM CDT 7:57 PM CDT
Civil Twilight 6:53 AM CDT 8:20 PM CDT
Nautical Twilight 6:25 AM CDT 8:48 PM CDT
Astronomical Twilight 5:57 AM CDT 9:17 PM CDT
Moon 2:26 PM CDT 12:36 AM CDT
Length of Visible Light 13h 27m
Length of Day
12h 39m
Tomorrow will be 1m 35s shorter.
Waxing Crescent, 49% of the Moon is Illuminated
Today
Waxing Crescent
Sep 2
First Quarter
Sep 8
Full
Sep 15
Last Quarter
Sep 24
New

Today's Extremes

State Highs State Lows

Community

WunderPhotos

Upload Photos

1,749,587 photos uploaded!

WunderBlogs® & News

Nearby

Air Quality

  Air Quality AQ Index Pollutant
Yesterday Good
PM2.5
Yesterday Good
OZONE
Current Good
PM2.5
Tuesday Good
PM10
Tuesday Good
OZONE
Wednesday Good
PM10
Wednesday Good
OZONE
Thursday Good
PM10
Thursday Good
OZONE

Snow Depth

Station Depth Elevation
No new snow has been reported.

Earthquake Activity

City Distance Mag. Time & Date
No recent earthquake activity has been reported nearby.
Minimum magnitude displayed is 2.5.

Coastal Water Temperatures

Place Temperature
No Stations Reporting

Nearby Weather Stations